Overview Statistics Trail Chart Weather Telemetry Raw packets
 

This is the latest recevied weather packets stored in our database for station/object KG5MMT-12. If no packets are shown the sender has not sent any weather packets the latest 10 day(s).

<< 9 10 11 12 13 14 15 >>
Time Temp. Humidity Pressure Rain* Wind** Luminosity Snow
1788625138 22.22° C 54% 0 hPa 0 mm - - -
1788624838 22.22° C 52% 0 hPa 0 mm - - -
1788624538 21.67° C 54% 0 hPa 0 mm - - -
1788624238 21.67° C 54% 0 hPa 0 mm - - -
1788623939 21.67° C 56% 0 hPa 0 mm - - -
1788623638 21.11° C 58% 0 hPa 0 mm - - -
1788623338 21.11° C 63% 0 hPa 0 mm - - -
1788623038 20.56° C 65% 0 hPa 0 mm - - -
1788622738 20.56° C 62% 0 hPa 0 mm - - -
1788622440 20° C 64% 0 hPa 0 mm - - -
1788622139 20° C 68% 0 hPa 0 mm - - -
1788621839 19.44° C 73% 0 hPa 0 mm - - -
1788621539 19.44° C 70% 0 hPa 0 mm - - -
1788621238 19.44° C 71% 0 hPa 0 mm - - -
1788620939 20° C 69% 0 hPa 0 mm - - -
1788620639 20° C 68% 0 hPa 0 mm - - -
1788620339 20° C 67% 0 hPa 0 mm - - -
1788620039 20.56° C 66% 0 hPa 0 mm - - -
1788619739 20° C 67% 0 hPa 0 mm - - -
1788619439 19.44° C 65% 0 hPa 0 mm - - -
1788619139 18.89° C 69% 0 hPa 0 mm - - -
1788618839 17.78° C 71% 0 hPa 0 mm - - -
1788618539 17.22° C 73% 0 hPa 0 mm - - -
1788618239 16.11° C 77% 0 hPa 0 mm - - -
1788617939 15.56° C 78% 0 hPa 0 mm - - -

* Rain latest hour (hover to see other rain measurements)
** Current wind speed in m/s (hover to see current wind gust speed)